Time;durP1;ratioP1;P1;durP2;ratioP2;P2;SDS_P1;SDS_P2;PMS_P1;PMS_P2;Temp;Humidity;BMP_temperature;BMP_pressure;BME280_temperature;BME280_humidity;BME280_pressure;Samples;Min_cycle;Max_cycle;Signal;HPM_P1;HPM_P2
2022/12/04 00:01:04;;;;;;;47.28;17.15;;;;;;;2.19;81.03;101248.44;5093238;28;20040;-70
2022/12/04 00:03:31;;;;;;;40.72;17.48;;;;;;;2.15;81.13;101252.19;5050536;28;20048;-70
2022/12/04 00:06:03;;;;;;;46.28;18.23;;;;;;;2.21;81.65;101249.19;5043743;28;20114;-70
2022/12/04 00:08:30;;;;;;;46.03;17.65;;;;;;;2.16;81.10;101251.22;5059738;28;20040;-70
2022/12/04 00:10:57;;;;;;;48.63;18.58;;;;;;;2.14;81.69;101252.25;5067285;28;20093;-70
2022/12/04 00:13:24;;;;;;;49.25;18.70;;;;;;;2.23;81.80;101244.72;5070554;28;20114;-70
2022/12/04 00:15:52;;;;;;;48.63;19.08;;;;;;;2.29;81.11;101236.53;5068588;28;20493;-70
2022/12/04 00:18:19;;;;;;;49.08;19.50;;;;;;;2.30;80.71;101238.19;5065522;28;20112;-71
2022/12/04 00:20:46;;;;;;;50.97;19.60;;;;;;;2.30;80.75;101232.13;5064551;28;20037;-72
2022/12/04 00:23:13;;;;;;;44.75;18.45;;;;;;;2.32;81.46;101227.63;5061777;28;20502;-71
2022/12/04 00:25:39;;;;;;;55.40;20.60;;;;;;;2.24;81.16;101229.88;5071910;28;20047;-70
2022/12/04 00:28:08;;;;;;;50.72;20.05;;;;;;;2.37;80.91;101224.78;5071201;28;20049;-71
2022/12/04 00:30:39;;;;;;;45.40;18.63;;;;;;;2.32;81.05;101224.19;5072054;28;20044;-71
2022/12/04 00:33:05;;;;;;;53.97;20.38;;;;;;;2.33;80.66;101225.84;5068092;28;20041;-71
2022/12/04 00:35:33;;;;;;;44.53;18.98;;;;;;;2.20;81.01;101220.47;5065877;28;20044;-71
2022/12/04 00:38:00;;;;;;;47.15;19.65;;;;;;;2.25;81.16;101219.28;5058501;28;20049;-71
2022/12/04 00:40:27;;;;;;;52.25;20.75;;;;;;;2.34;81.18;101220.53;5070882;28;20125;-69
2022/12/04 00:42:54;;;;;;;43.97;18.13;;;;;;;2.24;81.28;101216.78;5068216;28;20044;-70
2022/12/04 00:45:21;;;;;;;50.55;19.45;;;;;;;2.20;81.75;101207.41;5056556;28;20091;-70
2022/12/04 00:47:48;;;;;;;52.55;19.92;;;;;;;2.26;81.42;101209.69;5056277;28;20394;-70
2022/12/04 00:50:14;;;;;;;50.50;20.65;;;;;;;2.26;81.53;101207.06;5058510;28;20044;-70
2022/12/04 00:52:41;;;;;;;52.75;19.98;;;;;;;2.23;80.96;101207.22;5052299;28;20048;-70
2022/12/04 00:55:08;;;;;;;51.65;19.63;;;;;;;2.10;81.49;101209.72;5062968;28;20057;-70
2022/12/04 00:57:35;;;;;;;56.60;20.27;;;;;;;2.13;82.16;101214.78;5061390;28;20343;-69
2022/12/04 01:00:03;;;;;;;49.75;20.10;;;;;;;2.16;82.12;101211.13;5066058;28;20037;-70
2022/12/04 01:02:31;;;;;;;51.90;20.33;;;;;;;2.13;81.68;101216.53;5061979;28;20094;-69
2022/12/04 01:05:01;;;;;;;53.00;20.35;;;;;;;2.10;82.32;101209.72;5060761;28;20055;-68
2022/12/04 01:07:28;;;;;;;55.47;19.88;;;;;;;2.14;81.70;101215.63;5048720;28;20388;-69
2022/12/04 01:09:56;;;;;;;52.88;19.67;;;;;;;2.26;81.57;101202.66;5082264;28;20036;-69
2022/12/04 01:12:23;;;;;;;51.05;20.58;;;;;;;2.36;81.06;101210.81;5081712;28;20045;-69
2022/12/04 01:14:50;;;;;;;50.38;19.90;;;;;;;2.37;81.26;101216.91;5080324;28;20504;-69
2022/12/04 01:17:16;;;;;;;49.00;19.30;;;;;;;2.44;80.63;101213.00;5075470;28;20048;-70
2022/12/04 01:19:44;;;;;;;52.05;19.70;;;;;;;2.53;80.15;101220.31;5061497;28;20048;-70
2022/12/04 01:22:10;;;;;;;52.53;20.50;;;;;;;2.47;79.98;101224.16;5059693;28;20048;-70
2022/12/04 01:24:37;;;;;;;50.50;19.92;;;;;;;2.38;80.78;101226.44;5074399;28;20046;-70
2022/12/04 01:27:04;;;;;;;52.00;20.35;;;;;;;2.39;80.08;101221.13;5084827;28;20040;-70
2022/12/04 01:29:31;;;;;;;47.95;19.00;;;;;;;2.14;81.62;101223.47;5074464;28;20040;-69
2022/12/04 01:31:58;;;;;;;51.72;19.33;;;;;;;2.22;81.07;101224.72;5070878;28;20052;-69
2022/12/04 01:34:25;;;;;;;53.72;21.23;;;;;;;2.19;81.70;101218.81;5083702;28;20135;-70
2022/12/04 01:36:51;;;;;;;51.10;20.17;;;;;;;2.29;81.00;101212.09;5069959;28;20490;-69
2022/12/04 01:39:18;;;;;;;55.85;19.40;;;;;;;2.17;81.79;101213.66;5079139;28;20044;-70
2022/12/04 01:41:45;;;;;;;52.85;19.58;;;;;;;2.22;80.96;101216.88;5085309;28;20036;-69
2022/12/04 01:44:17;;;;;;;48.60;19.05;;;;;;;2.40;80.01;101216.72;5093417;28;20044;-69
2022/12/04 01:46:49;;;;;;;49.80;19.65;;;;;;;2.39;80.69;101215.88;5075101;28;20043;-70
2022/12/04 01:49:22;;;;;;;52.80;20.80;;;;;;;2.34;81.30;101211.84;5075449;28;20060;-70
2022/12/04 01:51:54;;;;;;;46.75;19.92;;;;;;;2.34;80.73;101206.59;5081470;28;20048;-69
2022/12/04 01:54:27;;;;;;;55.63;19.95;;;;;;;2.12;81.30;101205.22;5095078;28;20130;-69
2022/12/04 01:56:59;;;;;;;51.60;21.02;;;;;;;2.17;82.03;101200.56;5051470;28;20051;-69
2022/12/04 01:59:31;;;;;;;51.80;19.65;;;;;;;2.11;81.76;101203.53;5075503;28;20079;-69
2022/12/04 02:02:03;;;;;;;49.35;20.05;;;;;;;2.04;81.73;101199.59;5076145;28;20079;-69
2022/12/04 02:04:32;;;;;;;56.35;19.80;;;;;;;2.07;82.21;101195.03;5076074;28;20094;-68
2022/12/04 02:06:58;;;;;;;60.58;20.40;;;;;;;2.05;81.79;101188.19;5067919;28;20498;-68
2022/12/04 02:09:26;;;;;;;46.45;19.42;;;;;;;1.99;82.09;101191.16;5086478;28;20123;-68
2022/12/04 02:12:18;;;;;;;51.40;19.50;;;;;;;2.08;81.68;101190.63;5062820;28;20399;-69
2022/12/04 02:15:13;;;;;;;54.10;19.88;;;;;;;1.96;82.48;101191.34;5095061;28;20048;-69
2022/12/04 02:18:05;;;;;;;49.15;19.08;;;;;;;1.98;81.73;101192.91;5079893;28;20418;-69
2022/12/04 02:20:43;;;;;;;53.88;18.45;;;;;;;1.93;82.21;101200.22;5074497;28;20127;-69
2022/12/04 02:23:50;;;;;;;48.17;20.08;;;;;;;2.02;82.50;101204.94;5075082;28;20414;-69
2022/12/04 02:26:56;;;;;;;53.65;19.33;;;;;;;1.94;81.62;101193.19;5076030;28;20043;-69
2022/12/04 02:29:50;;;;;;;46.60;19.10;;;;;;;1.95;82.36;101195.72;5095036;28;20040;-68
2022/12/04 02:32:25;;;;;;;54.15;18.63;;;;;;;1.89;82.34;101196.94;5092820;28;20044;-69
2022/12/04 02:35:07;;;;;;;57.47;20.05;;;;;;;1.96;81.92;101191.34;5096100;28;20409;-69
2022/12/04 02:37:42;;;;;;;51.38;19.80;;;;;;;1.73;82.82;101193.50;5094326;28;20050;-69
2022/12/04 02:40:32;;;;;;;53.85;20.42;;;;;;;1.85;82.66;101184.94;5091998;28;20044;-70
2022/12/04 02:43:09;;;;;;;54.67;19.70;;;;;;;1.81;82.41;101195.66;5094652;28;20044;-70
2022/12/04 02:45:42;;;;;;;51.58;19.50;;;;;;;1.85;82.22;101191.94;5094803;28;20378;-70
2022/12/04 02:48:15;;;;;;;50.63;19.45;;;;;;;1.97;82.44;101193.88;5093882;28;20078;-69
2022/12/04 02:50:43;;;;;;;54.55;20.42;;;;;;;2.07;81.68;101197.66;5094729;28;20042;-70
2022/12/04 02:53:16;;;;;;;51.75;19.17;;;;;;;2.03;81.52;101200.53;5091571;28;20409;-70
2022/12/04 02:55:50;;;;;;;57.03;20.08;;;;;;;2.09;81.95;101200.16;5079632;28;20123;-70
2022/12/04 02:58:31;;;;;;;53.10;18.75;;;;;;;1.96;81.44;101192.16;5092632;28;20040;-70
2022/12/04 03:01:01;;;;;;;54.83;19.63;;;;;;;2.00;82.41;101198.06;5093891;28;20505;-70
2022/12/04 03:03:32;;;;;;;51.70;19.30;;;;;;;2.02;81.50;101194.47;5094825;28;20470;-69
2022/12/04 03:06:04;;;;;;;49.75;19.77;;;;;;;1.81;81.88;101193.88;5071855;28;20059;-70
2022/12/04 03:08:38;;;;;;;48.97;19.88;;;;;;;1.71;83.36;101193.56;5054238;28;20059;-70
2022/12/04 03:11:05;;;;;;;53.45;20.55;;;;;;;1.95;82.65;101197.47;5053780;28;20663;-70
2022/12/04 03:13:38;;;;;;;62.15;20.17;;;;;;;2.11;82.06;101209.63;5070395;28;20406;-69
2022/12/04 03:16:29;;;;;;;53.28;18.98;;;;;;;2.16;81.54;101198.88;5073463;28;20048;-69
2022/12/04 03:19:04;;;;;;;52.03;20.52;;;;;;;1.84;82.09;101196.34;5053839;28;20037;-70
2022/12/04 03:21:37;;;;;;;49.83;18.70;;;;;;;1.94;82.56;101211.50;5053755;28;20076;-70
2022/12/04 03:24:13;;;;;;;51.30;20.08;;;;;;;1.86;82.57;101204.94;5069468;28;20040;-70
2022/12/04 03:27:11;;;;;;;53.10;20.55;;;;;;;1.79;82.58;101195.75;5069363;28;20041;-70
2022/12/04 03:29:46;;;;;;;48.47;18.45;;;;;;;1.96;82.73;101197.41;5053418;28;20045;-70
2022/12/04 03:32:24;;;;;;;53.75;19.50;;;;;;;1.95;82.93;101205.34;5052490;28;20045;-70
2022/12/04 03:35:00;;;;;;;59.35;20.67;;;;;;;1.91;82.37;101202.06;5053665;28;20106;-70
2022/12/04 03:37:38;;;;;;;50.72;19.15;;;;;;;1.86;82.48;101202.31;5067390;28;20094;-70
2022/12/04 03:40:16;;;;;;;52.85;20.17;;;;;;;1.93;82.57;101194.97;5073272;28;20040;-70
2022/12/04 03:42:50;;;;;;;48.97;19.88;;;;;;;2.07;82.21;101202.03;5072601;28;20120;-70
2022/12/04 03:45:43;;;;;;;55.58;19.52;;;;;;;2.02;81.84;101193.59;5072326;28;20128;-70
2022/12/04 03:48:19;;;;;;;52.95;19.55;;;;;;;2.08;82.26;101194.09;5072392;28;20052;-70
2022/12/04 03:50:59;;;;;;;52.58;18.83;;;;;;;2.12;81.57;101186.91;5057785;28;20084;-69
2022/12/04 03:53:35;;;;;;;54.97;19.80;;;;;;;2.07;81.59;101196.78;5063626;28;20444;-69
2022/12/04 03:56:14;;;;;;;53.85;19.63;;;;;;;2.05;82.29;101194.25;5073484;28;20048;-69
2022/12/04 03:58:46;;;;;;;51.17;19.85;;;;;;;2.05;81.82;101193.44;5062853;28;20131;-69
2022/12/04 04:01:18;;;;;;;59.20;20.20;;;;;;;2.03;82.21;101193.50;5073511;28;20041;-70
2022/12/04 04:03:50;;;;;;;53.20;19.98;;;;;;;1.98;81.66;101194.69;5073101;28;20046;-69
2022/12/04 04:06:25;;;;;;;52.42;19.27;;;;;;;1.99;81.96;101188.56;5085306;28;20058;-69
2022/12/04 04:08:58;;;;;;;50.08;19.17;;;;;;;1.88;82.08;101189.16;5072674;28;20499;-70
2022/12/04 04:11:33;;;;;;;52.63;20.05;;;;;;;2.04;81.87;101187.34;5038538;28;20052;-70
2022/12/04 04:25:27;;;;;;;48.08;19.85;;;;;;;2.01;81.79;101211.06;5092843;28;20127;-71
2022/12/04 04:27:56;;;;;;;52.25;20.60;;;;;;;2.08;81.67;101201.94;5092303;28;20375;-70
2022/12/04 04:30:26;;;;;;;53.13;20.17;;;;;;;1.94;82.12;101203.66;5092715;28;20032;-70
2022/12/04 04:33:05;;;;;;;54.05;19.75;;;;;;;1.78;82.58;101201.06;5089784;28;20059;-71
2022/12/04 04:35:56;;;;;;;50.83;19.58;;;;;;;1.67;82.41;101202.53;5093322;28;20058;-71
2022/12/04 04:38:29;;;;;;;49.78;19.02;;;;;;;1.69;83.12;101199.81;5085025;28;20062;-71
2022/12/04 04:40:59;;;;;;;51.28;19.35;;;;;;;1.80;83.00;101194.84;5074968;28;20039;-71
2022/12/04 04:43:34;;;;;;;54.70;20.25;;;;;;;1.78;83.25;101191.44;5092884;28;20055;-71
2022/12/04 04:46:08;;;;;;;53.00;19.60;;;;;;;1.65;83.29;101200.91;5054891;28;20049;-70
2022/12/04 04:48:41;;;;;;;53.75;19.70;;;;;;;1.84;82.41;101191.09;5074021;28;20585;-71
2022/12/04 04:51:09;;;;;;;49.42;20.63;;;;;;;1.84;82.19;101196.34;5076560;28;20072;-71
2022/12/04 04:53:42;;;;;;;54.78;20.88;;;;;;;1.88;82.50;101192.63;5058835;28;20045;-71
2022/12/04 04:56:09;;;;;;;53.50;19.73;;;;;;;1.87;82.41;101192.69;5076655;28;20139;-71
2022/12/04 04:58:36;;;;;;;46.95;18.83;;;;;;;1.72;82.40;101191.78;5076343;28;20402;-71
2022/12/04 05:01:07;;;;;;;47.85;19.20;;;;;;;1.78;82.68;101196.66;5076218;28;20397;-71
2022/12/04 05:03:34;;;;;;;50.03;18.63;;;;;;;1.72;83.08;101189.16;5076680;28;20118;-71
2022/12/04 05:06:01;;;;;;;46.85;18.52;;;;;;;1.82;82.67;101194.72;5057721;28;20067;-70
2022/12/04 05:08:27;;;;;;;47.45;18.20;;;;;;;1.79;82.27;101180.06;5076310;28;20098;-71
2022/12/04 05:10:54;;;;;;;46.40;18.67;;;;;;;1.64;83.20;101181.75;5076210;28;20040;-71
2022/12/04 05:13:21;;;;;;;45.42;17.33;;;;;;;1.72;82.81;101182.16;5076422;28;20126;-71
2022/12/04 05:15:57;;;;;;;45.85;18.60;;;;;;;1.70;82.50;101176.19;5076142;28;20398;-71
2022/12/04 05:18:25;;;;;;;55.80;18.52;;;;;;;1.47;83.31;101174.84;5076254;28;20049;-71
2022/12/04 05:20:51;;;;;;;46.88;18.08;;;;;;;1.59;83.21;101188.19;5076233;28;20094;-71
2022/12/04 05:23:18;;;;;;;45.70;17.55;;;;;;;1.44;83.80;101177.63;5075675;28;20059;-70
2022/12/04 05:25:45;;;;;;;43.58;17.90;;;;;;;1.41;82.94;101190.03;5076341;28;20444;-71
2022/12/04 05:28:12;;;;;;;47.60;16.85;;;;;;;1.41;83.90;101188.25;5058187;28;20489;-71
2022/12/04 05:30:39;;;;;;;48.53;18.33;;;;;;;1.28;83.60;101182.84;5075709;28;20062;-71
2022/12/04 05:33:06;;;;;;;48.40;17.23;;;;;;;1.16;84.24;101186.13;5075630;28;20565;-71
2022/12/04 05:35:33;;;;;;;41.70;16.63;;;;;;;1.24;83.35;101183.13;5075603;28;20044;-70
2022/12/04 05:38:00;;;;;;;44.13;17.55;;;;;;;1.31;83.72;101185.31;5074499;28;20045;-71
2022/12/04 05:40:27;;;;;;;39.88;16.83;;;;;;;1.24;83.68;101183.13;5075781;28;20041;-70
2022/12/04 05:42:53;;;;;;;45.83;17.00;;;;;;;1.26;83.41;101181.25;5075804;28;20041;-71
2022/12/04 05:45:20;;;;;;;39.50;16.05;;;;;;;1.18;83.25;101184.25;5075218;28;20044;-70
2022/12/04 05:47:47;;;;;;;43.20;16.50;;;;;;;1.28;83.60;101176.78;5075971;28;20131;-71
2022/12/04 05:50:13;;;;;;;41.13;15.18;;;;;;;1.19;82.68;101185.13;5075383;28;20044;-71
2022/12/04 05:52:40;;;;;;;43.88;16.05;;;;;;;1.06;83.72;101179.72;5075652;28;20056;-70
2022/12/04 05:55:07;;;;;;;35.60;15.55;;;;;;;1.03;83.58;101185.94;5075731;28;20056;-71
2022/12/04 05:57:34;;;;;;;37.95;15.63;;;;;;;1.10;83.23;101189.91;5075163;28;20040;-70
2022/12/04 06:00:00;;;;;;;39.08;15.05;;;;;;;1.01;84.03;101181.72;5074927;28;20398;-70
2022/12/04 06:02:27;;;;;;;38.05;16.52;;;;;;;0.98;83.27;101185.34;5075462;28;20098;-71
2022/12/04 06:04:54;;;;;;;31.73;13.63;;;;;;;0.92;84.22;101183.06;5076086;28;20483;-71
2022/12/04 06:07:20;;;;;;;40.97;14.95;;;;;;;0.80;84.30;101186.31;5077221;28;20504;-71
2022/12/04 06:09:47;;;;;;;36.85;15.35;;;;;;;0.93;83.99;101185.59;5094935;28;20436;-71
2022/12/04 06:12:14;;;;;;;36.20;14.90;;;;;;;1.07;83.25;101190.06;5095457;28;20068;-70
2022/12/04 06:14:40;;;;;;;35.72;14.82;;;;;;;1.12;83.23;101184.59;5094787;28;20146;-70
2022/12/04 06:17:07;;;;;;;33.83;13.90;;;;;;;1.04;83.05;101194.66;5077440;28;20040;-70
2022/12/04 06:19:34;;;;;;;38.22;14.57;;;;;;;1.12;82.61;101190.66;5095060;28;20094;-70
2022/12/04 06:22:01;;;;;;;35.53;14.77;;;;;;;1.19;82.29;101188.59;5094996;28;20123;-71
2022/12/04 06:24:28;;;;;;;38.28;14.30;;;;;;;1.19;82.15;101196.41;5095387;28;20126;-70
2022/12/04 06:26:56;;;;;;;34.50;14.60;;;;;;;1.18;82.27;101192.09;5094890;28;20127;-71
2022/12/04 06:29:43;;;;;;;39.25;15.77;;;;;;;1.12;82.36;101195.06;5066380;28;20127;-71
2022/12/04 06:32:10;;;;;;;36.05;13.95;;;;;;;1.05;82.35;101198.94;5094840;28;20052;-71
2022/12/04 06:34:38;;;;;;;37.78;13.55;;;;;;;1.06;82.45;101198.84;5077196;28;20131;-71
2022/12/04 06:37:04;;;;;;;33.03;13.57;;;;;;;1.12;82.78;101201.13;5094808;28;20044;-71
2022/12/04 06:39:31;;;;;;;35.28;14.05;;;;;;;1.07;82.87;101203.13;5094726;28;20044;-70
2022/12/04 06:41:58;;;;;;;32.28;13.35;;;;;;;1.01;83.58;101200.03;5094329;28;20547;-70
2022/12/04 06:44:25;;;;;;;34.38;14.18;;;;;;;1.11;82.92;101203.81;5094627;28;20044;-70
2022/12/04 06:46:51;;;;;;;33.67;14.13;;;;;;;1.11;82.24;101202.06;5094882;28;20051;-71
2022/12/04 06:49:21;;;;;;;30.38;13.20;;;;;;;1.22;82.35;101211.94;5094303;28;20055;-71
2022/12/04 06:51:48;;;;;;;34.22;13.57;;;;;;;1.25;81.64;101208.31;5094680;28;20040;-70
2022/12/04 06:54:15;;;;;;;35.67;14.25;;;;;;;1.20;81.61;101202.47;5094366;28;20581;-71
2022/12/04 06:56:42;;;;;;;29.15;13.13;;;;;;;1.30;81.77;101212.38;5094348;28;20044;-70
2022/12/04 06:59:09;;;;;;;34.72;12.50;;;;;;;1.21;81.95;101212.03;5094027;28;20089;-70
2022/12/04 07:01:36;;;;;;;31.70;12.93;;;;;;;1.14;81.91;101214.94;5094611;28;20044;-71
2022/12/04 07:04:03;;;;;;;34.67;12.88;;;;;;;1.33;82.36;101219.22;5094569;28;20048;-70
2022/12/04 07:06:33;;;;;;;29.80;12.93;;;;;;;1.34;81.40;101213.03;5091132;28;20083;-70
2022/12/04 07:09:05;;;;;;;33.17;12.07;;;;;;;1.40;81.42;101206.63;5092636;28;20054;-71
2022/12/04 07:11:32;;;;;;;32.40;13.43;;;;;;;1.30;82.26;101206.31;5093049;28;20047;-71
2022/12/04 07:13:59;;;;;;;29.38;12.00;;;;;;;1.38;81.66;101198.03;5093924;28;20409;-70
2022/12/04 07:16:27;;;;;;;28.75;12.15;;;;;;;1.38;81.28;101198.03;5076068;28;20075;-71
2022/12/04 07:18:55;;;;;;;29.00;12.73;;;;;;;1.33;80.80;101206.97;5093985;28;20047;-70
2022/12/04 07:21:24;;;;;;;25.92;11.32;;;;;;;1.22;81.25;101208.47;5094101;28;20048;-70
2022/12/04 07:23:54;;;;;;;30.05;11.60;;;;;;;1.14;81.25;101204.50;5093955;28;20047;-71
2022/12/04 07:26:23;;;;;;;27.02;11.45;;;;;;;1.09;81.61;101213.50;5076587;28;20032;-71
2022/12/04 07:28:49;;;;;;;29.90;11.35;;;;;;;1.15;81.64;101213.19;5093494;28;20043;-71
2022/12/04 07:31:19;;;;;;;26.52;11.07;;;;;;;1.23;81.10;101207.56;5093927;28;20497;-70
2022/12/04 07:33:46;;;;;;;28.50;11.88;;;;;;;1.35;80.91;101222.59;5075437;28;20131;-70
2022/12/04 07:36:18;;;;;;;26.10;11.18;;;;;;;1.51;80.17;101220.81;5093841;28;20047;-70
2022/12/04 07:38:45;;;;;;;26.45;11.38;;;;;;;1.59;80.21;101225.63;5093543;28;20048;-71
2022/12/04 07:41:13;;;;;;;26.42;11.15;;;;;;;1.52;79.35;101219.88;5093454;28;20032;-71
2022/12/04 07:43:40;;;;;;;25.15;10.50;;;;;;;1.38;79.80;101224.19;5093634;28;20106;-70
2022/12/04 07:46:12;;;;;;;23.08;10.80;;;;;;;1.53;80.14;101231.22;5093564;28;20052;-71
2022/12/04 07:48:39;;;;;;;22.63;10.57;;;;;;;1.38;79.96;101235.47;5093971;28;20482;-71
2022/12/04 07:51:08;;;;;;;25.15;10.13;;;;;;;1.40;80.08;101233.66;5093017;28;20036;-70
2022/12/04 07:53:35;;;;;;;25.63;11.55;;;;;;;1.63;79.05;101226.31;5093852;28;20044;-71
2022/12/04 07:56:04;;;;;;;27.85;11.32;;;;;;;1.68;79.46;101232.97;5093455;28;20044;-71
2022/12/04 07:58:31;;;;;;;22.38;10.88;;;;;;;1.72;78.90;101238.88;5093585;28;20122;-71
2022/12/04 08:01:19;;;;;;;25.08;10.25;;;;;;;1.72;78.70;101237.09;5093336;28;20481;-71
2022/12/04 08:03:50;;;;;;;22.55;9.95;;;;;;;1.91;77.60;101236.06;5093288;28;20131;-71
2022/12/04 08:06:19;;;;;;;24.45;11.23;;;;;;;1.65;78.65;101234.91;5092400;28;20044;-71
2022/12/04 08:08:46;;;;;;;25.52;10.40;;;;;;;1.82;78.33;101239.19;5093285;28;20051;-70
2022/12/04 08:11:16;;;;;;;24.02;10.00;;;;;;;1.86;78.10;101238.94;5093280;28;20245;-71
2022/12/04 08:13:44;;;;;;;21.77;10.05;;;;;;;2.01;77.57;101234.63;5093388;28;20060;-71
2022/12/04 08:16:12;;;;;;;23.45;10.38;;;;;;;1.92;77.53;101243.84;5075409;28;20052;-70
2022/12/04 08:18:40;;;;;;;24.10;10.30;;;;;;;1.92;77.34;101245.63;5093353;28;20040;-70
2022/12/04 08:21:10;;;;;;;20.77;9.50;;;;;;;1.89;76.85;101244.03;5093077;28;20436;-71
2022/12/04 08:23:37;;;;;;;22.30;10.20;;;;;;;1.86;77.22;101238.94;5097059;28;20040;-70
2022/12/04 08:26:06;;;;;;;23.45;9.98;;;;;;;1.96;76.94;101235.81;5097028;28;20071;-71
2022/12/04 08:28:34;;;;;;;23.75;11.05;;;;;;;2.13;76.13;101238.34;5097614;28;20054;-70
2022/12/04 08:31:02;;;;;;;21.13;9.93;;;;;;;1.88;75.75;101231.84;5096579;28;20085;-71
2022/12/04 08:33:29;;;;;;;20.50;9.90;;;;;;;1.83;75.82;101239.13;5097490;28;20055;-70
2022/12/04 08:35:57;;;;;;;23.67;10.20;;;;;;;1.83;76.11;101236.50;5096814;28;20047;-71
2022/12/04 08:38:24;;;;;;;21.63;10.13;;;;;;;1.98;76.29;101239.19;5097319;28;20434;-71
2022/12/04 08:40:50;;;;;;;22.88;10.07;;;;;;;2.03;75.53;101245.00;5079001;28;20105;-71
2022/12/04 08:43:18;;;;;;;20.60;9.77;;;;;;;1.95;75.83;101241.97;5096995;28;20401;-71
2022/12/04 08:45:53;;;;;;;21.10;9.60;;;;;;;2.02;75.15;101244.19;5097117;28;20048;-71
2022/12/04 08:48:20;;;;;;;21.90;9.35;;;;;;;1.97;74.50;101240.13;5096461;28;20152;-70
2022/12/04 08:50:47;;;;;;;20.38;9.27;;;;;;;1.92;75.94;101241.22;5096679;28;20051;-71
2022/12/04 08:53:13;;;;;;;23.50;10.20;;;;;;;1.96;74.95;101238.44;5096298;28;20052;-70
2022/12/04 08:55:40;;;;;;;23.48;10.02;;;;;;;1.86;75.22;101245.97;5096985;28;20044;-71
2022/12/04 08:58:07;;;;;;;20.75;9.60;;;;;;;1.69;75.35;101244.25;5096733;28;20048;-71
2022/12/04 09:00:34;;;;;;;20.95;10.00;;;;;;;1.88;75.69;101239.72;5077937;28;20091;-71
2022/12/04 09:03:00;;;;;;;22.98;10.13;;;;;;;1.81;75.60;101243.59;5078672;28;20405;-71
2022/12/04 09:05:28;;;;;;;19.30;9.48;;;;;;;1.89;75.18;101238.78;5095728;28;20060;-71
2022/12/04 09:07:55;;;;;;;19.75;9.63;;;;;;;2.06;75.09;101239.63;5096219;28;20442;-72
2022/12/04 09:10:22;;;;;;;18.95;9.05;;;;;;;2.17;74.67;101241.63;5078176;28;20040;-69
2022/12/04 09:12:49;;;;;;;20.00;9.65;;;;;;;2.18;74.55;101240.69;5096461;28;20048;-71
2022/12/04 09:15:16;;;;;;;19.92;9.43;;;;;;;2.12;74.79;101244.50;5096308;28;20485;-71
2022/12/04 09:17:42;;;;;;;19.38;9.82;;;;;;;2.24;74.28;101237.72;5096503;28;20048;-72
2022/12/04 09:20:09;;;;;;;20.10;9.48;;;;;;;2.24;73.29;101227.25;5096083;28;20090;-71
2022/12/04 09:22:37;;;;;;;21.60;9.50;;;;;;;2.03;74.63;101230.16;5096104;28;20378;-71
2022/12/04 09:25:17;;;;;;;22.23;9.55;;;;;;;2.18;74.64;101225.81;5096103;28;20040;-71
2022/12/04 09:27:44;;;;;;;18.48;8.85;;;;;;;1.99;73.85;101231.25;5095876;28;20097;-70
2022/12/04 09:30:12;;;;;;;24.13;10.60;;;;;;;1.95;74.63;101232.38;5095765;28;20043;-70
2022/12/04 09:32:39;;;;;;;20.63;9.48;;;;;;;1.86;74.98;101233.72;5095843;28;20093;-71
2022/12/04 09:35:06;;;;;;;20.10;9.10;;;;;;;2.00;74.94;101247.78;5095101;28;20048;-70
2022/12/04 09:37:35;;;;;;;21.23;9.60;;;;;;;2.01;74.95;101239.84;5096126;28;20044;-70
2022/12/04 09:40:06;;;;;;;20.60;9.52;;;;;;;1.89;74.15;101243.16;5077798;28;20055;-70
2022/12/04 09:43:02;;;;;;;20.97;9.60;;;;;;;2.12;73.95;101254.97;5096289;28;20447;-70
2022/12/04 09:45:40;;;;;;;22.65;9.68;;;;;;;2.32;73.56;101247.75;5077474;28;20357;-70
2022/12/04 09:48:10;;;;;;;22.15;9.20;;;;;;;2.34;73.90;101258.97;5095858;28;20485;-70
2022/12/04 09:50:41;;;;;;;19.25;8.60;;;;;;;2.25;74.02;101262.97;5077247;28;20402;-70
2022/12/04 09:53:33;;;;;;;19.30;8.88;;;;;;;2.05;73.93;101261.47;5095929;28;20097;-70
2022/12/04 09:56:06;;;;;;;19.40;8.82;;;;;;;2.04;74.53;101262.41;5095215;28;20059;-70
2022/12/04 09:58:45;;;;;;;20.75;9.60;;;;;;;2.15;73.75;101261.78;5095740;28;20454;-70
2022/12/04 10:01:20;;;;;;;19.08;9.10;;;;;;;2.02;73.89;101256.41;5095069;28;20040;-70
2022/12/04 10:03:47;;;;;;;21.95;9.95;;;;;;;2.25;73.40;101262.97;5095425;28;20120;-70
2022/12/04 10:06:21;;;;;;;18.05;9.40;;;;;;;2.22;73.35;101253.53;5094127;28;20257;-70
2022/12/04 10:08:57;;;;;;;19.95;9.60;;;;;;;2.23;73.83;101252.56;5095424;28;20126;-70
2022/12/04 10:11:38;;;;;;;21.13;9.40;;;;;;;2.13;73.55;101251.44;5095447;28;20127;-70
2022/12/04 10:14:21;;;;;;;19.02;9.60;;;;;;;2.13;73.54;101237.47;5095246;28;20058;-70
2022/12/04 10:17:15;;;;;;;21.85;9.48;;;;;;;2.28;73.52;101242.69;5095192;28;20048;-70
2022/12/04 10:20:21;;;;;;;19.90;9.23;;;;;;;2.26;73.28;101243.72;5095232;28;20052;-70
2022/12/04 10:23:15;;;;;;;18.25;8.27;;;;;;;2.34;74.21;101240.66;5094944;28;20040;-70
2022/12/04 10:25:42;;;;;;;18.33;8.48;;;;;;;2.36;73.34;101234.38;5094782;28;20044;-70
2022/12/04 10:28:32;;;;;;;21.23;9.88;;;;;;;2.45;72.89;101240.88;5095041;28;20052;-70
2022/12/04 10:31:01;;;;;;;18.88;8.63;;;;;;;2.47;72.42;101234.63;5080080;28;20050;-70
2022/12/04 10:33:40;;;;;;;18.92;9.52;;;;;;;2.40;71.91;101228.06;5077112;28;20051;-70
2022/12/04 10:36:12;;;;;;;21.58;9.88;;;;;;;2.33;72.11;101226.72;5076876;28;20563;-71
2022/12/04 10:39:04;;;;;;;18.80;9.45;;;;;;;2.41;72.83;101226.28;5076919;28;20040;-70
2022/12/04 10:41:56;;;;;;;19.50;9.55;;;;;;;2.30;72.70;101230.34;5094534;28;20044;-70
2022/12/04 10:44:23;;;;;;;20.35;9.60;;;;;;;2.41;72.84;101232.34;5094662;28;20036;-70
2022/12/04 10:46:55;;;;;;;19.75;9.80;;;;;;;2.22;73.04;101218.63;5093639;28;20097;-70
2022/12/04 10:49:24;;;;;;;;;;;;;;;2.32;73.04;101225.03;5094896;28;20040;-70
2022/12/04 10:51:51;;;;;;;20.42;8.85;;;;;;;2.38;73.74;101219.41;5094797;28;19927;-70
2022/12/04 10:57:04;;;;;;;21.67;9.85;;;;;;;2.27;73.05;101216.59;5111563;27;20371;-71
2022/12/04 10:59:32;;;;;;;18.77;9.13;;;;;;;2.15;73.80;101212.91;5109760;28;20108;-70
2022/12/04 11:02:04;;;;;;;25.75;9.75;;;;;;;2.38;72.96;101208.09;5110739;28;20036;-70
2022/12/04 11:04:34;;;;;;;20.67;10.18;;;;;;;2.38;72.61;101206.31;5109747;28;20047;-70
2022/12/04 11:07:04;;;;;;;20.10;9.27;;;;;;;2.44;72.55;101205.97;5110628;28;20077;-71
2022/12/04 11:09:32;;;;;;;19.20;9.35;;;;;;;2.54;72.50;101206.28;5111093;28;20044;-71
2022/12/04 11:12:20;;;;;;;24.73;9.45;;;;;;;2.44;72.96;101198.13;5110790;28;20040;-71
2022/12/04 11:14:57;;;;;;;19.73;9.55;;;;;;;2.58;72.76;101196.47;5110315;28;20532;-71
2022/12/04 11:17:24;;;;;;;22.90;10.05;;;;;;;2.36;73.34;101186.41;5109517;28;20047;-70
2022/12/04 11:20:16;;;;;;;22.17;9.32;;;;;;;2.58;72.62;101188.59;5110565;28;20077;-71
2022/12/04 11:22:53;;;;;;;20.85;9.20;;;;;;;2.18;72.99;101180.47;5110398;28;20047;-70
2022/12/04 11:25:21;;;;;;;20.25;10.38;;;;;;;2.28;73.11;101185.09;5110357;28;20042;-70
2022/12/04 11:27:53;;;;;;;19.30;9.73;;;;;;;2.40;72.61;101186.16;5109316;28;20089;-70
2022/12/04 11:30:26;;;;;;;22.17;9.32;;;;;;;2.44;72.88;101181.59;5108953;28;20032;-71
2022/12/04 11:32:54;;;;;;;21.70;9.75;;;;;;;2.52;73.01;101170.66;5109319;28;20052;-71
2022/12/04 11:35:24;;;;;;;18.85;9.68;;;;;;;2.36;73.32;101183.78;5109275;28;20489;-71
2022/12/04 11:37:57;;;;;;;21.38;10.05;;;;;;;2.22;73.16;101174.13;5109192;28;20105;-71
2022/12/04 11:40:25;;;;;;;22.58;9.80;;;;;;;2.02;73.70;101176.13;5110160;28;20052;-71
2022/12/04 11:43:00;;;;;;;21.13;9.57;;;;;;;2.00;73.73;101182.38;5110150;28;20069;-71
2022/12/04 11:45:27;;;;;;;21.52;10.10;;;;;;;2.07;74.37;101183.72;5109501;28;20374;-71
2022/12/04 11:47:58;;;;;;;20.33;9.48;;;;;;;2.26;73.84;101186.94;5110303;28;20047;-71
2022/12/04 11:50:51;;;;;;;20.25;9.98;;;;;;;2.25;73.79;101171.31;5109705;27;20051;-71
2022/12/04 11:53:46;;;;;;;20.17;9.45;;;;;;;2.36;73.31;101171.53;5091939;28;20048;-71